Time;durP1;ratioP1;P1;durP2;ratioP2;P2;SDS_P1;SDS_P2;PMS_P1;PMS_P2;Temp;Humidity;BMP_temperature;BMP_pressure;BME280_temperature;BME280_humidity;BME280_pressure;Samples;Min_cycle;Max_cycle;Signal;HPM_P1;HPM_P2
2021/01/20 00:02:17;;;;;;;12.95;9.98;;;0.80;93.00;;;;;;5009679;28;20421;-72
2021/01/20 00:04:43;;;;;;;15.70;9.85;;;0.80;93.30;;;;;;5004389;28;20792;-72
2021/01/20 00:07:09;;;;;;;14.40;9.77;;;0.70;93.50;;;;;;5006994;28;20406;-71
2021/01/20 00:09:35;;;;;;;12.52;9.30;;;0.90;92.70;;;;;;5005200;28;20458;-72
2021/01/20 00:12:01;;;;;;;14.73;9.50;;;1.00;92.60;;;;;;4995857;28;20391;-71
2021/01/20 00:14:27;;;;;;;13.55;9.68;;;1.00;92.40;;;;;;5001537;28;20489;-72
2021/01/20 00:16:53;;;;;;;13.27;9.82;;;1.00;92.40;;;;;;4991858;28;20890;-72
2021/01/20 00:19:19;;;;;;;14.95;9.98;;;1.00;92.50;;;;;;5009204;28;20392;-72
2021/01/20 00:21:45;;;;;;;14.23;9.63;;;0.90;92.50;;;;;;4994360;28;20422;-71
2021/01/20 00:24:11;;;;;;;15.23;9.63;;;1.00;92.30;;;;;;4994697;28;20403;-72
2021/01/20 00:26:37;;;;;;;11.73;8.50;;;1.00;92.40;;;;;;4997911;28;20402;-72
2021/01/20 00:29:03;;;;;;;11.88;8.82;;;;;;;;;;5009406;28;20392;-72
2021/01/20 00:31:29;;;;;;;12.18;8.10;;;1.00;91.80;;;;;;5004097;28;20446;-72
2021/01/20 00:33:55;;;;;;;14.75;8.70;;;1.10;91.40;;;;;;5013811;28;20783;-72
2021/01/20 00:36:21;;;;;;;12.97;9.40;;;1.30;90.90;;;;;;5002959;28;20396;-72
2021/01/20 00:38:47;;;;;;;12.05;8.90;;;1.40;90.40;;;;;;5013295;28;20406;-72
2021/01/20 00:41:14;;;;;;;12.67;8.70;;;1.40;90.70;;;;;;4999301;28;20457;-72
2021/01/20 00:43:39;;;;;;;11.73;8.25;;;1.40;89.90;;;;;;5009416;28;20394;-72
2021/01/20 00:46:05;;;;;;;13.88;8.75;;;1.50;90.10;;;;;;4994201;28;20442;-71
2021/01/20 00:48:31;;;;;;;12.70;9.07;;;1.60;88.70;;;;;;4996862;28;20441;-72
2021/01/20 00:50:57;;;;;;;13.82;8.35;;;1.60;88.50;;;;;;5006987;28;20449;-71
2021/01/20 00:53:23;;;;;;;11.53;8.50;;;1.60;88.10;;;;;;5001129;28;20406;-72
2021/01/20 00:55:49;;;;;;;12.15;8.55;;;1.50;89.00;;;;;;5002722;28;20399;-72
2021/01/20 00:58:16;;;;;;;13.32;8.95;;;1.50;88.30;;;;;;5005100;28;20409;-72
2021/01/20 01:00:42;;;;;;;13.82;8.85;;;1.40;88.30;;;;;;5008418;28;20467;-72
2021/01/20 01:03:08;;;;;;;14.17;8.73;;;1.50;87.90;;;;;;5018038;28;20408;-72
2021/01/20 01:05:34;;;;;;;12.40;7.93;;;1.50;88.10;;;;;;5017076;28;20401;-72
2021/01/20 01:08:00;;;;;;;12.93;8.43;;;1.50;88.20;;;;;;5016821;28;20407;-72
2021/01/20 01:10:26;;;;;;;12.75;8.48;;;1.50;88.10;;;;;;5021897;28;20385;-72
2021/01/20 01:12:52;;;;;;;12.20;8.30;;;1.40;88.30;;;;;;5026516;28;20383;-72
2021/01/20 01:15:19;;;;;;;9.98;7.90;;;1.30;89.00;;;;;;5029421;28;20391;-72
2021/01/20 01:17:45;;;;;;;12.43;8.38;;;1.30;88.30;;;;;;5022689;28;20391;-73
2021/01/20 01:20:12;;;;;;;12.38;8.32;;;1.40;87.80;;;;;;5011398;28;20416;-72
2021/01/20 01:22:38;;;;;;;10.50;7.93;;;1.50;87.30;;;;;;5005879;28;20504;-72
2021/01/20 01:25:05;;;;;;;11.02;7.57;;;1.40;87.60;;;;;;5002443;28;20500;-72
2021/01/20 01:27:31;;;;;;;11.95;8.60;;;1.60;86.60;;;;;;5031544;28;20494;-72
2021/01/20 01:29:57;;;;;;;12.50;8.68;;;1.40;87.00;;;;;;5034060;28;20470;-72
2021/01/20 01:32:24;;;;;;;10.63;7.30;;;1.40;87.20;;;;;;5019943;28;20403;-72
2021/01/20 01:34:49;;;;;;;13.65;7.82;;;1.40;86.60;;;;;;5006813;28;20410;-72
2021/01/20 01:37:15;;;;;;;11.10;7.70;;;1.50;85.80;;;;;;5032202;28;20391;-72
2021/01/20 01:39:41;;;;;;;9.53;7.17;;;1.60;85.50;;;;;;5015281;28;20455;-72
2021/01/20 01:42:09;;;;;;;10.57;7.25;;;1.70;84.60;;;;;;5027360;28;20395;-72
2021/01/20 01:44:35;;;;;;;10.45;7.45;;;1.70;84.40;;;;;;5011467;28;20451;-72
2021/01/20 01:47:01;;;;;;;11.57;7.43;;;1.70;84.50;;;;;;5013777;28;20447;-72
2021/01/20 01:49:30;;;;;;;11.77;7.88;;;1.70;84.20;;;;;;5024778;28;20395;-72
2021/01/20 01:52:00;;;;;;;9.70;7.13;;;1.70;84.40;;;;;;5015635;28;20396;-72
2021/01/20 01:54:27;;;;;;;11.05;7.65;;;1.70;84.20;;;;;;5020905;28;20394;-72
2021/01/20 01:56:53;;;;;;;12.27;7.57;;;1.70;84.50;;;;;;5013478;28;20399;-72
2021/01/20 01:59:19;;;;;;;11.43;7.50;;;1.60;84.50;;;;;;5018792;28;20959;-71
2021/01/20 02:01:46;;;;;;;11.20;7.40;;;1.60;84.00;;;;;;5020024;28;20427;-72
2021/01/20 02:04:12;;;;;;;9.50;6.87;;;1.70;83.60;;;;;;5007365;23;20439;-81
2021/01/20 02:06:39;;;;;;;10.20;7.07;;;1.70;83.30;;;;;;4964345;28;20425;-81
2021/01/20 02:09:05;;;;;;;9.70;7.03;;;1.60;84.10;;;;;;4983019;28;20753;-82
2021/01/20 02:11:47;;;;;;;9.98;6.88;;;1.60;83.70;;;;;;4970385;28;20395;-81
2021/01/20 02:14:26;;;;;;;9.10;6.57;;;1.60;83.60;;;;;;4980650;28;20470;-81
2021/01/20 02:17:00;;;;;;;9.70;6.75;;;1.60;83.20;;;;;;4988242;28;20390;-81
2021/01/20 02:20:04;;;;;;;10.38;7.60;;;1.50;83.70;;;;;;4964789;28;20407;-81
2021/01/20 02:22:35;;;;;;;9.75;7.18;;;1.60;83.70;;;;;;4952991;28;20422;-81
2021/01/20 02:25:13;;;;;;;9.73;7.05;;;1.50;83.60;;;;;;4980286;28;20428;-81
2021/01/20 02:27:50;;;;;;;10.30;7.40;;;1.40;83.90;;;;;;4958204;28;20414;-82
2021/01/20 02:30:19;;;;;;;10.90;7.70;;;1.50;83.60;;;;;;4966650;28;20446;-81
2021/01/20 02:32:49;;;;;;;12.80;7.97;;;1.70;82.20;;;;;;4970534;28;20802;-81
2021/01/20 02:35:15;;;;;;;10.05;8.27;;;1.60;82.70;;;;;;4967060;28;20436;-81
2021/01/20 02:37:41;;;;;;;11.30;7.67;;;1.60;82.40;;;;;;4971880;28;20438;-81
2021/01/20 02:40:08;;;;;;;10.68;7.35;;;1.50;82.90;;;;;;4976188;28;20417;-81
2021/01/20 02:42:41;;;;;;;10.45;7.22;;;1.50;83.40;;;;;;4980402;28;20411;-82
2021/01/20 02:45:09;;;;;;;11.43;7.67;;;1.40;83.90;;;;;;4974542;28;20413;-81
2021/01/20 02:47:37;;;;;;;12.48;7.85;;;1.40;84.00;;;;;;4984462;28;20479;-81
2021/01/20 02:50:04;;;;;;;11.95;7.60;;;1.40;83.40;;;;;;4963987;28;20417;-81
2021/01/20 02:52:37;;;;;;;11.15;8.15;;;1.50;83.40;;;;;;4964805;28;20404;-81
2021/01/20 02:55:06;;;;;;;13.30;8.00;;;1.50;83.30;;;;;;4974585;28;20412;-81
2021/01/20 02:57:34;;;;;;;9.18;6.80;;;1.40;83.70;;;;;;4976033;28;20446;-81
2021/01/20 03:00:03;;;;;;;10.63;7.05;;;1.40;83.50;;;;;;4972452;28;20417;-81
2021/01/20 03:02:30;;;;;;;10.63;6.70;;;1.50;83.00;;;;;;4967644;28;20438;-81
2021/01/20 03:04:59;;;;;;;9.70;6.38;;;1.40;84.00;;;;;;4979263;28;20400;-81
2021/01/20 03:07:27;;;;;;;11.35;6.88;;;1.40;83.90;;;;;;4974314;28;20414;-81
2021/01/20 03:09:54;;;;;;;10.67;6.70;;;1.50;83.30;;;;;;4962107;28;20412;-81
2021/01/20 03:12:23;;;;;;;8.47;6.87;;;1.40;83.70;;;;;;4975830;28;20442;-81
2021/01/20 03:14:51;;;;;;;9.50;6.80;;;1.50;83.70;;;;;;4973285;28;20916;-81
2021/01/20 03:17:17;;;;;;;10.52;6.75;;;1.60;82.70;;;;;;4969799;28;20470;-81
2021/01/20 03:19:43;;;;;;;10.57;6.90;;;1.70;82.40;;;;;;4972426;28;20438;-81
2021/01/20 03:22:10;;;;;;;10.07;7.23;;;1.70;82.00;;;;;;4967017;28;20495;-81
2021/01/20 03:24:36;;;;;;;9.35;6.75;;;1.60;82.50;;;;;;4967022;28;20625;-81
2021/01/20 03:27:01;;;;;;;9.40;6.65;;;1.60;82.70;;;;;;4960029;28;20439;-81
2021/01/20 03:29:27;;;;;;;8.48;6.25;;;1.50;83.00;;;;;;4975242;28;20457;-81
2021/01/20 03:31:53;;;;;;;9.23;6.68;;;1.60;82.80;;;;;;4972539;28;20503;-81
2021/01/20 03:34:19;;;;;;;10.77;7.17;;;1.70;82.30;;;;;;4956069;28;20412;-81
2021/01/20 03:36:45;;;;;;;9.00;6.43;;;1.80;81.40;;;;;;4965580;28;20414;-81
2021/01/20 03:39:12;;;;;;;9.17;6.57;;;1.90;81.20;;;;;;4973780;28;20403;-81
2021/01/20 03:41:38;;;;;;;8.65;6.38;;;1.90;81.30;;;;;;4963632;28;20945;-81
2021/01/20 03:44:04;;;;;;;10.88;6.97;;;1.80;81.80;;;;;;4985566;28;20402;-81
2021/01/20 03:46:30;;;;;;;11.38;7.07;;;1.80;81.60;;;;;;4979000;28;20405;-81
2021/01/20 03:48:56;;;;;;;9.53;6.37;;;1.90;81.60;;;;;;4991774;28;20505;-81
2021/01/20 03:51:22;;;;;;;9.05;6.50;;;1.70;82.00;;;;;;4975303;28;20392;-82
2021/01/20 03:53:48;;;;;;;9.40;6.28;;;1.70;82.30;;;;;;4956180;28;20415;-81
2021/01/20 03:56:15;;;;;;;9.07;6.30;;;1.40;83.50;;;;;;4975263;28;20758;-81
2021/01/20 03:58:41;;;;;;;9.07;6.55;;;1.50;82.60;;;;;;4975501;28;20411;-81
2021/01/20 04:01:07;;;;;;;9.85;6.38;;;1.50;82.70;;;;;;4978743;28;20606;-82
2021/01/20 04:03:33;;;;;;;10.53;6.40;;;1.60;82.40;;;;;;4961716;28;20418;-81
2021/01/20 04:05:59;;;;;;;8.25;5.97;;;1.50;82.80;;;;;;4983057;28;20785;-81
2021/01/20 04:08:24;;;;;;;8.93;5.75;;;1.40;83.00;;;;;;4963485;28;20941;-82
2021/01/20 04:10:50;;;;;;;9.93;6.60;;;1.50;82.60;;;;;;4965538;28;20400;-81
2021/01/20 04:13:17;;;;;;;9.05;6.57;;;1.40;82.70;;;;;;4975193;28;20392;-82
2021/01/20 04:15:43;;;;;;;9.87;6.23;;;1.40;82.60;;;;;;4975338;28;20410;-81
2021/01/20 04:18:09;;;;;;;9.77;6.20;;;1.30;83.50;;;;;;4974664;28;20407;-82
2021/01/20 04:20:36;;;;;;;9.10;6.30;;;1.30;83.10;;;;;;4962003;28;20441;-82
2021/01/20 04:23:02;;;;;;;8.32;5.50;;;1.30;83.50;;;;;;4976951;28;20407;-81
2021/01/20 04:25:27;;;;;;;9.57;6.60;;;1.40;82.90;;;;;;4974978;28;20449;-81
2021/01/20 04:27:53;;;;;;;10.25;6.40;;;1.40;83.10;;;;;;4975198;28;20457;-82
2021/01/20 04:30:21;;;;;;;10.32;6.50;;;1.40;82.60;;;;;;4980126;28;20393;-81
2021/01/20 04:32:47;;;;;;;9.55;6.25;;;1.40;83.60;;;;;;4975658;28;20502;-82
2021/01/20 04:35:13;;;;;;;8.87;5.87;;;1.30;82.90;;;;;;4991293;28;20840;-81
2021/01/20 04:37:39;;;;;;;10.05;6.28;;;1.40;82.50;;;;;;4963829;28;20415;-81
2021/01/20 04:40:06;;;;;;;8.07;6.07;;;1.30;83.50;;;;;;4975323;28;20946;-81
2021/01/20 04:42:32;;;;;;;8.45;5.80;;;1.30;82.30;;;;;;4989857;28;20412;-82
2021/01/20 04:44:58;;;;;;;9.00;6.00;;;1.40;82.20;;;;;;4978666;28;20972;-81
2021/01/20 04:47:27;;;;;;;9.73;6.07;;;1.60;80.80;;;;;;4978423;28;20410;-81
2021/01/20 04:49:55;;;;;;;10.25;6.00;;;1.60;80.80;;;;;;4964738;28;20410;-82
2021/01/20 04:52:22;;;;;;;8.23;5.60;;;1.60;80.80;;;;;;4986929;28;20444;-81
2021/01/20 04:54:49;;;;;;;8.60;5.80;;;1.60;80.50;;;;;;4964516;28;20410;-82
2021/01/20 04:57:15;;;;;;;6.70;5.13;;;1.60;81.30;;;;;;4978342;28;20402;-81
2021/01/20 04:59:42;;;;;;;10.40;5.95;;;1.70;79.80;;;;;;4975918;28;20402;-81
2021/01/20 05:02:09;;;;;;;8.32;5.65;;;1.80;79.60;;;;;;4958925;28;20895;-81
2021/01/20 05:04:39;;;;;;;8.02;5.70;;;1.70;80.20;;;;;;4963233;28;20501;-82
2021/01/20 05:07:06;;;;;;;7.95;5.10;;;1.70;80.20;;;;;;4965804;28;20461;-81
2021/01/20 05:09:32;;;;;;;7.35;5.22;;;1.60;80.40;;;;;;4959341;28;20475;-82
2021/01/20 05:11:58;;;;;;;9.00;5.70;;;1.50;81.00;;;;;;4967601;28;20904;-81
2021/01/20 05:14:24;;;;;;;7.82;5.45;;;1.60;80.50;;;;;;4964247;28;20410;-81
2021/01/20 05:16:52;;;;;;;6.70;5.28;;;1.70;80.10;;;;;;4962084;28;20406;-82
2021/01/20 05:19:35;;;;;;;8.25;5.40;;;1.70;80.00;;;;;;4964854;28;20408;-81
2021/01/20 05:22:04;;;;;;;8.57;5.20;;;1.80;79.70;;;;;;4969536;28;20779;-81
2021/01/20 05:24:32;;;;;;;8.13;5.20;;;1.90;78.80;;;;;;4974516;28;20423;-80
2021/01/20 05:26:58;;;;;;;6.63;5.03;;;2.00;78.90;;;;;;4974330;28;20441;-81
2021/01/20 05:29:24;;;;;;;8.35;5.55;;;2.00;78.90;;;;;;4974404;28;20416;-81
2021/01/20 05:31:50;;;;;;;8.35;5.65;;;1.90;78.90;;;;;;4963838;28;20753;-81
2021/01/20 05:34:27;;;;;;;10.27;5.45;;;1.90;78.80;;;;;;4974163;28;20404;-81
2021/01/20 05:37:06;;;;;;;7.72;5.45;;;1.80;79.80;;;;;;4974438;28;20514;-81
2021/01/20 05:39:33;;;;;;;8.43;5.63;;;1.80;79.70;;;;;;4957261;28;20501;-81
2021/01/20 05:42:01;;;;;;;8.45;5.68;;;1.70;79.90;;;;;;4966774;28;20420;-81
2021/01/20 05:44:27;;;;;;;8.45;5.65;;;1.80;80.00;;;;;;4957961;28;20435;-81
2021/01/20 05:46:53;;;;;;;9.77;6.07;;;1.80;79.90;;;;;;4963601;28;20472;-81
2021/01/20 05:49:24;;;;;;;9.57;6.07;;;1.80;79.70;;;;;;4972113;28;20437;-82
2021/01/20 05:51:52;;;;;;;11.25;6.40;;;1.80;79.70;;;;;;4967661;28;20998;-81
2021/01/20 05:54:30;;;;;;;9.85;6.53;;;1.60;80.50;;;;;;4970700;28;20414;-82
2021/01/20 05:57:13;;;;;;;8.85;5.80;;;1.70;80.20;;;;;;4964826;28;20742;-81
2021/01/20 05:59:39;;;;;;;8.63;6.05;;;1.80;80.10;;;;;;4968216;28;20404;-82
2021/01/20 06:02:05;;;;;;;9.50;6.20;;;1.80;79.40;;;;;;4964347;28;20420;-81
2021/01/20 06:04:32;;;;;;;10.27;6.53;;;1.80;79.10;;;;;;4961176;28;20475;-82
2021/01/20 06:06:59;;;;;;;9.00;6.38;;;1.80;79.80;;;;;;4961464;28;20406;-81
2021/01/20 06:09:25;;;;;;;8.88;5.45;;;1.80;79.70;;;;;;4973630;28;20764;-81
2021/01/20 06:11:52;;;;;;;9.98;6.10;;;1.70;79.70;;;;;;4967501;28;20895;-81
2021/01/20 06:14:18;;;;;;;8.43;5.97;;;1.70;79.90;;;;;;4965729;28;20415;-83
2021/01/20 06:16:48;;;;;;;8.30;5.78;;;1.80;78.70;;;;;;4959785;28;20408;-82
2021/01/20 06:19:19;;;;;;;9.18;5.82;;;1.90;78.40;;;;;;4955825;28;20936;-82
2021/01/20 06:21:47;;;;;;;9.20;6.43;;;2.00;77.40;;;;;;4955262;28;20428;-82
2021/01/20 06:24:18;;;;;;;9.52;6.22;;;1.90;78.30;;;;;;4962440;28;20400;-83
2021/01/20 06:26:50;;;;;;;9.50;5.97;;;1.80;79.10;;;;;;4966098;28;20447;-83
2021/01/20 06:29:23;;;;;;;8.88;5.43;;;1.80;78.60;;;;;;4971427;28;20404;-82
2021/01/20 06:31:51;;;;;;;8.13;5.22;;;1.90;78.40;;;;;;4960801;28;20868;-82
2021/01/20 06:34:17;;;;;;;6.97;5.00;;;1.90;78.70;;;;;;4960135;28;20418;-82
2021/01/20 06:36:43;;;;;;;9.30;5.43;;;2.00;77.50;;;;;;4969565;28;20509;-82
2021/01/20 06:39:33;;;;;;;7.85;5.55;;;2.00;77.40;;;;;;4965675;28;20466;-82
2021/01/20 06:42:02;;;;;;;8.82;5.30;;;1.80;78.20;;;;;;4970256;28;20456;-82
2021/01/20 06:44:29;;;;;;;8.68;5.82;;;1.80;77.70;;;;;;4964380;28;20502;-82
2021/01/20 06:47:00;;;;;;;8.70;5.80;;;1.70;78.50;;;;;;4965194;28;20428;-82
2021/01/20 06:49:27;;;;;;;8.30;5.70;;;1.90;77.40;;;;;;4967374;28;20971;-82
2021/01/20 06:52:10;;;;;;;7.75;5.20;;;1.90;77.50;;;;;;4967398;28;20757;-82
2021/01/20 06:54:41;;;;;;;8.63;5.53;;;1.90;77.60;;;;;;4959880;28;20411;-82
2021/01/20 06:57:29;;;;;;;8.18;5.38;;;1.90;77.20;;;;;;4955255;28;20445;-82
2021/01/20 07:00:14;;;;;;;9.48;6.13;;;1.90;76.90;;;;;;4972461;28;20436;-82
2021/01/20 07:02:59;;;;;;;9.98;5.90;;;2.10;76.10;;;;;;4972851;28;20409;-82
2021/01/20 07:05:36;;;;;;;8.10;5.57;;;2.10;76.30;;;;;;4972958;28;20935;-82
2021/01/20 07:08:07;;;;;;;8.55;5.20;;;2.10;75.80;;;;;;4968225;28;20432;-82
2021/01/20 07:11:06;;;;;;;9.20;5.70;;;2.10;75.30;;;;;;4965158;28;20901;-82
2021/01/20 07:13:39;;;;;;;8.43;6.15;;;1.90;76.00;;;;;;4959735;28;20410;-82
2021/01/20 07:16:11;;;;;;;8.13;5.60;;;1.90;76.30;;;;;;4963162;28;20412;-82
2021/01/20 07:18:40;;;;;;;9.30;6.50;;;1.80;76.90;;;;;;4960369;28;20400;-82
2021/01/20 07:21:07;;;;;;;10.70;7.15;;;1.70;77.70;;;;;;4969147;28;20422;-82
2021/01/20 07:23:34;;;;;;;10.68;6.93;;;1.60;78.00;;;;;;4970388;28;20423;-82
2021/01/20 07:26:03;;;;;;;8.82;5.97;;;1.60;78.90;;;;;;4967139;28;20816;-82
2021/01/20 07:28:30;;;;;;;9.10;6.30;;;1.80;78.30;;;;;;4972587;28;20833;-82
2021/01/20 07:31:08;;;;;;;8.43;5.70;;;1.70;78.20;;;;;;4972274;28;20440;-82
2021/01/20 07:33:35;;;;;;;9.15;6.22;;;1.80;77.80;;;;;;4969431;28;20409;-83
2021/01/20 07:36:12;;;;;;;9.70;6.30;;;1.90;77.60;;;;;;4968996;28;20401;-82
2021/01/20 07:38:38;;;;;;;8.88;5.97;;;1.90;77.90;;;;;;4954601;28;20398;-82
2021/01/20 07:41:15;;;;;;;8.40;5.70;;;1.90;77.00;;;;;;4966426;28;20418;-82
2021/01/20 07:43:41;;;;;;;10.50;6.38;;;2.10;76.80;;;;;;4964589;28;20401;-82
2021/01/20 07:46:15;;;;;;;8.35;6.10;;;2.00;77.10;;;;;;4969720;28;20499;-82
2021/01/20 07:48:42;;;;;;;9.32;5.85;;;2.00;77.10;;;;;;4962515;28;20499;-83
2021/01/20 07:51:17;;;;;;;8.98;5.50;;;1.90;76.60;;;;;;4958041;28;20402;-81
2021/01/20 07:53:56;;;;;;;7.47;4.60;;;2.00;76.60;;;;;;4961932;28;20459;-82
2021/01/20 07:56:22;;;;;;;7.60;5.13;;;2.20;76.30;;;;;;4969414;28;20503;-82
2021/01/20 07:58:48;;;;;;;8.68;5.88;;;2.20;76.20;;;;;;4952979;28;20410;-82
2021/01/20 08:01:24;;;;;;;8.95;5.97;;;2.10;76.70;;;;;;4953995;28;20425;-82
2021/01/20 08:03:51;;;;;;;10.90;6.35;;;2.10;76.10;;;;;;4960783;28;20419;-81
2021/01/20 08:06:17;;;;;;;12.35;7.72;;;2.00;76.80;;;;;;4969471;28;20414;-82
2021/01/20 08:08:54;;;;;;;9.50;6.30;;;2.20;75.80;;;;;;4972181;28;20506;-82
2021/01/20 08:11:20;;;;;;;9.90;5.63;;;2.20;76.20;;;;;;4972728;28;20408;-82
2021/01/20 08:13:48;;;;;;;8.00;5.18;;;2.10;76.20;;;;;;4971265;28;20437;-82
2021/01/20 08:16:14;;;;;;;11.18;5.68;;;2.30;74.80;;;;;;4968681;28;20441;-82
2021/01/20 08:18:44;;;;;;;8.25;5.70;;;2.30;74.50;;;;;;4963221;28;20445;-82
2021/01/20 08:21:12;;;;;;;8.82;5.40;;;2.50;73.80;;;;;;4975806;28;20427;-82
2021/01/20 08:23:51;;;;;;;9.65;5.78;;;2.60;72.80;;;;;;4975727;28;20819;-82
2021/01/20 08:26:24;;;;;;;8.43;5.65;;;2.70;73.20;;;;;;4975719;28;20416;-81
2021/01/20 08:29:04;;;;;;;7.43;5.80;;;2.60;73.70;;;;;;4975604;28;20788;-82
2021/01/20 08:31:30;;;;;;;8.13;5.53;;;2.60;74.20;;;;;;4967498;28;20409;-82
2021/01/20 08:34:17;;;;;;;10.25;5.80;;;2.60;72.80;;;;;;4956348;28;20406;-82
2021/01/20 08:37:07;;;;;;;10.00;6.80;;;2.40;73.70;;;;;;4957605;28;20407;-82
2021/01/20 08:39:37;;;;;;;10.57;6.50;;;2.40;74.80;;;;;;4963590;28;20413;-82
2021/01/20 08:42:26;;;;;;;10.40;6.70;;;2.30;75.20;;;;;;4957296;28;20974;-82
2021/01/20 08:45:05;;;;;;;10.23;6.70;;;2.40;73.90;;;;;;4962202;28;20414;-82
2021/01/20 08:47:32;;;;;;;10.52;7.00;;;2.40;74.10;;;;;;4975226;28;20435;-82
2021/01/20 08:49:58;;;;;;;11.13;6.85;;;2.50;74.00;;;;;;4975203;28;20895;-82
2021/01/20 08:52:25;;;;;;;10.68;6.80;;;2.50;73.80;;;;;;4975364;28;20462;-82
2021/01/20 08:54:51;;;;;;;12.02;7.05;;;2.90;71.50;;;;;;4976155;28;20423;-82
2021/01/20 08:57:19;;;;;;;11.27;6.72;;;2.80;71.90;;;;;;4975048;28;20408;-82
2021/01/20 08:59:50;;;;;;;13.32;6.97;;;2.90;72.00;;;;;;4961487;28;20510;-82
2021/01/20 09:02:17;;;;;;;10.88;7.10;;;2.90;71.50;;;;;;4967642;28;20430;-82
2021/01/20 09:04:45;;;;;;;13.73;7.97;;;3.00;71.20;;;;;;4969039;28;20753;-82
2021/01/20 09:07:11;;;;;;;10.77;7.32;;;2.80;72.70;;;;;;4963327;28;20403;-82
2021/01/20 09:09:38;;;;;;;11.30;7.20;;;2.70;73.20;;;;;;4974853;28;20532;-82
2021/01/20 09:12:05;;;;;;;10.90;7.18;;;2.80;73.30;;;;;;4961818;28;20412;-82
2021/01/20 09:14:31;;;;;;;11.95;7.25;;;2.90;72.20;;;;;;4974883;28;20417;-82
2021/01/20 09:16:58;;;;;;;11.95;8.20;;;2.90;72.80;;;;;;4974754;28;20436;-82
2021/01/20 09:19:24;;;;;;;10.55;6.68;;;2.90;72.90;;;;;;4974813;28;20412;-82
2021/01/20 09:21:50;;;;;;;11.60;6.93;;;2.90;72.10;;;;;;4961005;28;20422;-82
2021/01/20 09:24:16;;;;;;;13.57;7.23;;;2.90;72.80;;;;;;4966433;28;20455;-82
2021/01/20 09:26:43;;;;;;;10.32;6.63;;;3.00;72.20;;;;;;4959892;28;20504;-81
2021/01/20 09:29:09;;;;;;;12.20;6.85;;;3.20;71.00;;;;;;4958173;28;20407;-82
2021/01/20 09:31:35;;;;;;;9.07;6.53;;;3.20;69.70;;;;;;4974699;28;20411;-82
2021/01/20 09:34:01;;;;;;;10.95;6.63;;;3.30;70.40;;;;;;4973573;28;20404;-82
2021/01/20 09:36:27;;;;;;;11.88;6.70;;;3.20;71.50;;;;;;4956461;28;20943;-83
2021/01/20 09:38:53;;;;;;;9.68;6.28;;;3.20;71.40;;;;;;4967874;28;20412;-82
2021/01/20 09:41:19;;;;;;;9.63;6.30;;;3.30;70.50;;;;;;4960616;28;20420;-82
2021/01/20 09:43:47;;;;;;;13.38;6.93;;;3.50;69.30;;;;;;4964784;28;20398;-82
2021/01/20 09:46:12;;;;;;;9.43;6.63;;;3.50;69.30;;;;;;4958159;28;20409;-82
2021/01/20 09:48:39;;;;;;;10.27;6.28;;;3.60;68.70;;;;;;4974036;28;20400;-82
2021/01/20 09:51:05;;;;;;;10.05;6.20;;;3.60;68.60;;;;;;4974118;28;20864;-82
2021/01/20 09:53:31;;;;;;;9.30;6.63;;;3.50;69.10;;;;;;4971106;28;20509;-82
2021/01/20 09:55:57;;;;;;;9.50;6.25;;;3.60;69.20;;;;;;4978744;28;20408;-82
2021/01/20 09:58:23;;;;;;;9.80;6.38;;;3.70;69.20;;;;;;4971627;28;20404;-82
2021/01/20 10:00:50;;;;;;;8.35;6.25;;;3.70;69.00;;;;;;4978487;28;20431;-82
2021/01/20 10:03:16;;;;;;;8.18;5.88;;;3.60;69.80;;;;;;4965773;28;20410;-82
2021/01/20 10:05:42;;;;;;;8.38;5.65;;;3.60;69.30;;;;;;4981311;28;20772;-82
2021/01/20 10:08:08;;;;;;;9.13;6.35;;;;;;;;;;4970100;28;20489;-82
2021/01/20 10:10:34;;;;;;;10.57;6.32;;;;;;;;;;4978150;28;20440;-82
2021/01/20 10:13:00;;;;;;;9.52;5.95;;;;;;;;;;4968065;28;20496;-82
2021/01/20 10:15:27;;;;;;;9.70;6.70;;;;;;;;;;4975398;28;20412;-82
2021/01/20 10:17:54;;;;;;;9.27;6.13;;;;;;;;;;4985617;28;20429;-83
2021/01/20 10:20:20;;;;;;;8.18;6.07;;;4.30;66.20;;;;;;4979357;28;20465;-82
2021/01/20 10:22:46;;;;;;;10.25;6.60;;;4.10;68.10;;;;;;4987729;28;20410;-82
2021/01/20 10:25:14;;;;;;;9.53;6.50;;;4.20;67.50;;;;;;4963336;28;20416;-83
2021/01/20 10:27:40;;;;;;;8.95;6.30;;;4.10;67.50;;;;;;4973595;28;20451;-82
2021/01/20 10:30:07;;;;;;;9.52;6.30;;;4.30;67.10;;;;;;4973748;28;20415;-82
2021/01/20 10:32:33;;;;;;;10.73;6.87;;;;;;;;;;4974656;28;20755;-82
2021/01/20 10:35:00;;;;;;;9.50;6.45;;;;;;;;;;4974358;28;20450;-82
2021/01/20 10:37:26;;;;;;;11.00;7.13;;;;;;;;;;4959903;28;20421;-83
2021/01/20 10:39:52;;;;;;;9.88;6.25;;;;;;;;;;4966497;28;20489;-83
2021/01/20 10:42:18;;;;;;;10.93;7.15;;;;;;;;;;4966808;28;20443;-83
2021/01/20 10:44:47;;;;;;;11.00;6.30;;;;;;;;;;4968333;28;20420;-83
2021/01/20 10:47:13;;;;;;;11.40;6.43;;;;;;;;;;4954041;28;20409;-83
2021/01/20 10:49:39;;;;;;;11.00;6.95;;;;;;;;;;4953853;28;20413;-83
2021/01/20 10:52:06;;;;;;;10.73;7.00;;;;;;;;;;4953928;28;20409;-82
2021/01/20 10:54:32;;;;;;;11.43;6.82;;;;;;;;;;4969275;28;20505;-83
2021/01/20 10:56:59;;;;;;;9.93;6.70;;;4.30;67.00;;;;;;4965472;28;20405;-83
2021/01/20 10:59:25;;;;;;;10.23;6.95;;;4.70;67.10;;;;;;4973027;28;20962;-82
2021/01/20 11:01:51;;;;;;;11.90;7.75;;;4.80;65.60;;;;;;4973099;28;20408;-83
2021/01/20 11:04:18;;;;;;;10.48;7.15;;;4.80;66.30;;;;;;4964356;28;20435;-83
2021/01/20 11:06:43;;;;;;;12.68;8.48;;;4.70;67.60;;;;;;4956741;28;20440;-83
2021/01/20 11:09:10;;;;;;;16.85;11.05;;;4.60;67.00;;;;;;4973073;28;20483;-83
2021/01/20 11:11:36;;;;;;;34.90;22.75;;;4.50;68.70;;;;;;4973858;28;20406;-83
2021/01/20 11:14:02;;;;;;;37.00;24.77;;;4.50;76.20;;;;;;4956605;28;20481;-83
2021/01/20 11:16:28;;;;;;;30.88;23.05;;;4.50;79.30;;;;;;4975580;28;20442;-83
2021/01/20 11:18:54;;;;;;;36.97;25.00;;;4.70;78.10;;;;;;4966265;28;20399;-83
2021/01/20 11:21:20;;;;;;;39.70;25.42;;;4.70;80.00;;;;;;4974490;28;20458;-83
2021/01/20 11:23:46;;;;;;;32.30;22.53;;;4.70;78.60;;;;;;4974619;28;20499;-83
2021/01/20 11:26:13;;;;;;;37.17;24.13;;;4.80;78.50;;;;;;4984922;28;20421;-82
2021/01/20 11:28:39;;;;;;;36.67;23.83;;;4.80;78.30;;;;;;4963529;28;20416;-83
2021/01/20 11:31:05;;;;;;;37.58;23.63;;;4.90;77.40;;;;;;4975762;28;20399;-83
2021/01/20 11:33:31;;;;;;;41.80;28.60;;;4.80;77.30;;;;;;4975965;28;20407;-82
2021/01/20 11:35:57;;;;;;;28.83;19.17;;;4.70;77.20;;;;;;4975745;28;20414;-83
2021/01/20 11:38:23;;;;;;;24.73;17.08;;;4.60;75.50;;;;;;4975885;28;20413;-83
2021/01/20 11:40:49;;;;;;;36.08;23.67;;;4.50;74.40;;;;;;4979319;28;20782;-83
2021/01/20 11:43:16;;;;;;;39.65;25.27;;;4.40;75.70;;;;;;4963200;28;20399;-83
2021/01/20 11:45:42;;;;;;;33.42;22.35;;;4.40;75.90;;;;;;4963513;28;20408;-83
2021/01/20 11:48:08;;;;;;;31.50;20.15;;;4.50;75.00;;;;;;4974667;28;20450;-83
2021/01/20 11:50:34;;;;;;;33.97;20.93;;;4.70;73.70;;;;;;4976657;28;20402;-82
2021/01/20 11:53:00;;;;;;;35.40;23.38;;;4.80;73.30;;;;;;4984673;28;20396;-83
2021/01/20 11:55:27;;;;;;;31.83;21.35;;;4.80;73.50;;;;;;4974072;28;20418;-82
2021/01/20 11:57:53;;;;;;;27.02;18.08;;;;;;;;;;4972019;28;20947;-83
2021/01/20 12:00:21;;;;;;;30.50;19.63;;;;;;;;;;4970452;28;20411;-83
2021/01/20 12:02:47;;;;;;;26.48;18.25;;;;;;;;;;4970902;28;20513;-82
2021/01/20 12:05:14;;;;;;;22.70;16.40;;;;;;;;;;4973247;28;20978;-82
2021/01/20 12:07:43;;;;;;;24.45;17.42;;;;;;;;;;4972595;28;20412;-82
2021/01/20 12:10:10;;;;;;;23.25;17.13;;;;;;;;;;4958277;28;20478;-83
2021/01/20 12:12:36;;;;;;;22.73;15.45;;;;;;;;;;4956005;28;20391;-82
2021/01/20 12:15:02;;;;;;;20.38;15.10;;;;;;;;;;4957832;28;20403;-83
2021/01/20 12:17:30;;;;;;;20.10;14.70;;;;;;;;;;4959691;28;20792;-83
2021/01/20 12:19:56;;;;;;;19.35;15.60;;;;;;;;;;4961992;28;20428;-83
2021/01/20 12:22:23;;;;;;;22.20;15.45;;;;;;;;;;4959241;28;20428;-83
2021/01/20 12:24:49;;;;;;;23.38;14.80;;;;;;;;;;4961553;28;20400;-82
2021/01/20 12:27:15;;;;;;;21.70;15.40;;;;;;;;;;4970201;28;20522;-82
2021/01/20 12:29:41;;;;;;;19.63;15.02;;;;;;;;;;4953945;28;20448;-83
2021/01/20 12:32:07;;;;;;;22.48;15.80;;;;;;;;;;4974832;28;20427;-83
2021/01/20 12:34:34;;;;;;;19.67;14.77;;;;;;;;;;4974633;28;20408;-82
2021/01/20 12:37:00;;;;;;;18.67;14.40;;;5.40;72.80;;;;;;4974902;28;20411;-83
2021/01/20 12:39:27;;;;;;;23.92;15.95;;;5.40;73.40;;;;;;4968170;28;20914;-82
2021/01/20 12:41:53;;;;;;;23.38;15.68;;;5.40;73.00;;;;;;4972955;28;20440;-82
2021/01/20 12:44:19;;;;;;;22.60;16.15;;;5.40;73.60;;;;;;4973925;28;20502;-83
2021/01/20 12:46:45;;;;;;;19.00;13.90;;;5.30;74.40;;;;;;4952816;28;20416;-82
2021/01/20 12:49:11;;;;;;;24.07;16.50;;;5.40;74.40;;;;;;4948366;28;20408;-82
2021/01/20 12:51:37;;;;;;;22.25;15.55;;;5.30;74.50;;;;;;4952915;28;20460;-83
2021/01/20 12:54:04;;;;;;;20.20;15.52;;;5.30;75.10;;;;;;4974340;28;20415;-82
2021/01/20 12:56:30;;;;;;;19.15;13.70;;;5.20;75.50;;;;;;4970878;28;20429;-82
2021/01/20 12:58:56;;;;;;;21.65;15.20;;;5.30;75.40;;;;;;4971027;28;20404;-82
2021/01/20 13:01:22;;;;;;;22.83;16.10;;;5.30;75.40;;;;;;4960303;28;20428;-82
2021/01/20 13:03:48;;;;;;;21.65;14.70;;;5.10;76.30;;;;;;4954005;28;20469;-82
2021/01/20 13:06:16;;;;;;;20.03;14.20;;;5.20;77.00;;;;;;4964537;28;20414;-82